Time;durP1;ratioP1;P1;durP2;ratioP2;P2;SDS_P1;SDS_P2;PMS_P1;PMS_P2;Temp;Humidity;BMP_temperature;BMP_pressure;BME280_temperature;BME280_humidity;BME280_pressure;Samples;Min_cycle;Max_cycle;Signal;HPM_P1;HPM_P2
2022/11/19 00:01:54;;;;;;;0.60;0.60;;;;;4.20;95275.00;;;;8297319;28;20236;-86
2022/11/19 00:06:30;;;;;;;0.50;0.50;;;;;4.20;95271.00;;;;8297691;28;20214;-84
2022/11/19 00:10:36;;;;;;;0.50;0.50;;;;;4.10;95277.00;;;;8298185;28;20221;-86
2022/11/19 00:14:43;;;;;;;0.50;0.50;;;;;4.10;95277.00;;;;8297492;28;20250;-85
2022/11/19 00:18:46;;;;;;;0.47;0.47;;;;;4.20;95290.00;;;;8298427;28;20232;-83
2022/11/19 00:22:51;;;;;;;0.50;0.50;;;;;4.30;95292.00;;;;8297878;28;20218;-82
2022/11/19 00:27:27;;;;;;;0.50;0.50;;;;;4.20;95291.00;;;;8297026;28;20555;-81
2022/11/19 00:31:32;;;;;;;0.40;0.40;;;;;4.20;95291.00;;;;8296469;28;20301;-82
2022/11/19 00:35:35;;;;;;;0.50;0.50;;;;;4.20;95293.00;;;;8297141;28;20228;-83
2022/11/19 00:39:38;;;;;;;0.50;0.50;;;;;4.10;95296.00;;;;8297485;28;20233;-83
2022/11/19 00:43:49;;;;;;;0.50;0.50;;;;;4.00;95288.00;;;;8296195;28;20220;-85
2022/11/19 00:48:16;;;;;;;0.40;0.40;;;;;4.00;95287.00;;;;8297404;28;20629;-85
2022/11/19 00:52:19;;;;;;;0.50;0.50;;;;;4.00;95297.00;;;;8296453;28;20638;-84
2022/11/19 00:56:25;;;;;;;0.40;0.40;;;;;3.90;95293.00;;;;8296607;28;20221;-82
2022/11/19 01:01:00;;;;;;;1.10;1.10;;;;;3.80;95293.00;;;;8296709;28;20619;-82
2022/11/19 01:05:04;;;;;;;0.50;0.50;;;;;3.80;95298.00;;;;8296015;28;20234;-82
2022/11/19 01:09:07;;;;;;;0.70;0.70;;;;;3.70;95299.00;;;;8296374;28;20232;-85
2022/11/19 01:17:32;;;;;;;0.50;0.50;;;;;3.70;95305.00;;;;8296455;28;20241;-88
2022/11/19 01:22:06;;;;;;;0.47;0.47;;;;;3.70;95312.00;;;;8295667;28;20232;-87
2022/11/19 01:26:09;;;;;;;0.50;0.50;;;;;3.60;95311.00;;;;8295842;28;20707;-87
2022/11/19 01:30:13;;;;;;;0.50;0.50;;;;;3.60;95315.00;;;;8288067;28;20221;-85
2022/11/19 01:34:50;;;;;;;0.50;0.50;;;;;3.60;95313.00;;;;8295798;28;20221;-85
2022/11/19 01:38:53;;;;;;;0.60;0.60;;;;;3.60;95320.00;;;;8295148;28;20214;-86
2022/11/19 01:42:56;;;;;;;0.50;0.50;;;;;3.60;95320.00;;;;8296069;28;20267;-89
2022/11/19 01:46:59;;;;;;;0.50;0.50;;;;;3.60;95331.00;;;;8294379;28;20286;-88
2022/11/19 01:51:38;;;;;;;0.60;0.60;;;;;3.60;95329.00;;;;8295411;28;20229;-89
2022/11/19 01:55:43;;;;;;;0.43;0.43;;;;;3.50;95343.00;;;;8284528;28;20218;-90
2022/11/19 01:59:49;;;;;;;0.50;0.50;;;;;3.50;95353.00;;;;8294686;28;20217;-87
2022/11/19 02:04:26;;;;;;;0.50;0.50;;;;;3.60;95354.00;;;;8294799;28;20225;-88
2022/11/19 02:08:37;;;;;;;0.50;0.50;;;;;3.40;95351.00;;;;8295457;28;20592;-79
2022/11/19 02:13:14;;;;;;;0.50;0.50;;;;;3.10;95353.00;;;;8294581;28;20716;-76
2022/11/19 02:17:25;;;;;;;0.50;0.50;;;;;2.80;95355.00;;;;8293926;28;20224;-77
2022/11/19 02:21:57;;;;;;;0.50;0.50;;;;;2.70;95354.00;;;;8294875;28;20248;-78
2022/11/19 02:26:36;;;;;;;0.50;0.50;;;;;2.60;95350.00;;;;8294686;28;20224;-79
2022/11/19 02:30:43;;;;;;;9.80;3.87;;;;;2.50;95348.00;;;;8268979;28;20223;-81
2022/11/19 02:34:49;;;;;;;6.60;3.73;;;;;2.40;95359.00;;;;8295460;28;20224;-78
2022/11/19 02:39:26;;;;;;;6.63;3.63;;;;;2.40;95360.00;;;;8294664;28;20227;-78
2022/11/19 02:43:35;;;;;;;12.23;3.90;;;;;2.30;95367.00;;;;8294864;28;20220;-77
2022/11/19 02:47:42;;;;;;;11.07;4.30;;;;;2.30;95366.00;;;;8294399;28;20227;-76
2022/11/19 02:51:46;;;;;;;8.60;3.40;;;;;2.30;95373.00;;;;8294320;28;20677;-75
2022/11/19 03:04:30;;;;;;;2.90;1.93;;;;;2.30;95367.00;;;;8293801;28;20238;-70
2022/11/19 03:08:33;;;;;;;3.70;1.80;;;;;2.30;95367.00;;;;8293537;28;20241;-72
2022/11/19 03:17:33;;;;;;;5.50;2.83;;;;;2.20;95391.00;;;;8294514;28;20329;-72
2022/11/19 03:21:41;;;;;;;2.97;2.30;;;;;2.20;95382.00;;;;8299514;28;20270;-72
2022/11/19 03:25:49;;;;;;;9.10;3.93;;;;;2.20;95386.00;;;;8300280;28;20222;-72
2022/11/19 03:29:55;;;;;;;8.63;3.93;;;;;2.20;95384.00;;;;8299139;28;20222;-72
2022/11/19 03:34:31;;;;;;;6.97;3.40;;;;;2.20;95383.00;;;;8299645;28;20231;-72
2022/11/19 03:38:41;;;;;;;7.83;3.63;;;;;2.10;95405.00;;;;8299094;28;20275;-72
2022/11/19 03:42:50;;;;;;;16.60;6.27;;;;;2.10;95400.00;;;;8299076;28;20219;-72
2022/11/19 03:46:58;;;;;;;12.53;4.17;;;;;2.10;95404.00;;;;8298698;28;20600;-73
2022/11/19 03:51:06;;;;;;;18.83;6.00;;;;;2.10;95409.00;;;;8299231;28;20249;-70
2022/11/19 03:55:11;;;;;;;12.80;4.43;;;;;2.10;95421.00;;;;8298863;28;20646;-71
2022/11/19 03:59:47;;;;;;;18.87;5.97;;;;;2.10;95423.00;;;;8298785;28;20229;-70
2022/11/19 04:08:07;;;;;;;13.40;5.57;;;;;2.10;95425.00;;;;8297669;28;20245;-70
2022/11/19 04:12:16;;;;;;;13.20;5.37;;;;;2.10;95437.00;;;;8297959;28;20221;-71
2022/11/19 04:16:19;;;;;;;26.03;8.23;;;;;2.10;95434.00;;;;8298091;28;20220;-73
2022/11/19 04:20:22;;;;;;;8.37;4.63;;;;;2.10;95446.00;;;;8297006;28;20724;-71
2022/11/19 04:24:59;;;;;;;5.53;3.23;;;;;2.10;95435.00;;;;8297812;28;20227;-72
2022/11/19 04:29:37;;;;;;;10.00;4.70;;;;;2.00;95435.00;;;;8297200;28;20229;-72
2022/11/19 04:34:11;;;;;;;4.80;3.13;;;;;2.10;95443.00;;;;8297806;28;20221;-72
2022/11/19 04:38:14;;;;;;;16.87;6.13;;;;;2.00;95450.00;;;;8297038;28;20222;-71
2022/11/19 04:42:17;;;;;;;37.07;10.37;;;;;2.00;95452.00;;;;8297589;28;20220;-72
2022/11/19 04:46:21;;;;;;;36.83;10.03;;;;;2.00;95461.00;;;;8296729;28;20218;-72
2022/11/19 04:50:56;;;;;;;30.00;7.77;;;;;2.00;95460.00;;;;8295516;28;20223;-72
2022/11/19 04:54:59;;;;;;;21.57;6.90;;;;;2.10;95458.00;;;;8296981;28;20536;-72
2022/11/19 04:59:02;;;;;;;19.43;7.47;;;;;2.10;95466.00;;;;8296873;28;20223;-72
2022/11/19 05:03:40;;;;;;;29.10;7.90;;;;;2.10;95463.00;;;;8296121;28;20231;-72
2022/11/19 05:08:13;;;;;;;30.90;9.07;;;;;2.10;95462.00;;;;8297210;28;20228;-72
2022/11/19 05:12:16;;;;;;;30.90;8.90;;;;;2.10;95464.00;;;;8295775;28;20230;-72
2022/11/19 05:16:20;;;;;;;25.73;8.50;;;;;2.10;95461.00;;;;8295656;28;20223;-71
2022/11/19 05:20:58;;;;;;;27.13;8.10;;;;;2.10;95475.00;;;;8296034;28;20273;-71
2022/11/19 05:25:01;;;;;;;25.13;7.67;;;;;2.10;95484.00;;;;8295895;28;20227;-71
2022/11/19 05:29:04;;;;;;;25.33;8.33;;;;;2.20;95481.00;;;;8295416;28;20219;-71
2022/11/19 05:33:07;;;;;;;25.40;7.87;;;;;2.20;95474.00;;;;8296070;28;20219;-71
2022/11/19 05:37:47;;;;;;;23.73;8.30;;;;;2.10;95467.00;;;;8295272;28;20222;-70
2022/11/19 05:41:50;;;;;;;31.63;8.80;;;;;2.10;95473.00;;;;8294246;28;20657;-70
2022/11/19 05:46:27;;;;;;;19.97;7.40;;;;;2.00;95478.00;;;;8294692;28;20225;-70
2022/11/19 05:51:04;;;;;;;40.57;10.03;;;;;2.00;95474.00;;;;8294893;28;20217;-70
2022/11/19 05:55:42;;;;;;;29.87;9.77;;;;;1.90;95474.00;;;;8294365;28;20221;-70
2022/11/19 05:59:45;;;;;;;22.37;8.93;;;;;1.90;95479.00;;;;8295743;28;20618;-70
2022/11/19 06:04:22;;;;;;;23.03;8.73;;;;;1.90;95478.00;;;;8294384;28;20223;-70
2022/11/19 06:08:59;;;;;;;29.77;9.37;;;;;1.80;95479.00;;;;8294279;28;20223;-70
2022/11/19 06:13:23;;;;;;;40.07;10.50;;;;;1.80;95496.00;;;;8294345;28;20230;-70
2022/11/19 06:17:57;;;;;;;31.77;11.10;;;;;1.80;95503.00;;;;8293921;28;20235;-70
2022/11/19 06:22:35;;;;;;;18.67;7.50;;;;;1.90;95506.00;;;;8294955;28;20219;-70
2022/11/19 06:27:12;;;;;;;31.97;10.37;;;;;1.80;95500.00;;;;8293553;28;20693;-70
2022/11/19 06:31:50;;;;;;;23.43;8.67;;;;;1.70;95498.00;;;;8295382;28;20226;-70
2022/11/19 06:36:24;;;;;;;39.10;13.33;;;;;1.70;95503.00;;;;8294687;28;20528;-70
2022/11/19 06:40:29;;;;;;;36.90;10.80;;;;;1.60;95512.00;;;;8293718;28;20290;-70
2022/11/19 06:45:07;;;;;;;34.73;10.60;;;;;1.70;95521.00;;;;8295287;28;20683;-70
2022/11/19 06:49:45;;;;;;;34.07;11.37;;;;;1.60;95520.00;;;;8283492;28;20232;-72
2022/11/19 06:54:18;;;;;;;54.90;11.83;;;;;1.60;95528.00;;;;8299305;28;20226;-72
2022/11/19 06:58:55;;;;;;;15.03;6.33;;;;;1.50;95526.00;;;;8293541;28;20224;-72
2022/11/19 07:03:32;;;;;;;36.67;10.47;;;;;1.50;95524.00;;;;8300114;28;20219;-72
2022/11/19 07:08:10;;;;;;;31.80;10.23;;;;;1.40;95531.00;;;;8299158;28;20249;-72
2022/11/19 07:12:13;;;;;;;30.43;10.87;;;;;1.40;95535.00;;;;8299403;28;20282;-73
2022/11/19 07:21:47;;;;;;;40.33;11.40;;;;;1.50;95524.00;;;;8288256;28;20223;-73
2022/11/19 07:26:25;;;;;;;38.33;11.50;;;;;1.50;95541.00;;;;8298375;28;20655;-73
2022/11/19 07:30:59;;;;;;;47.73;12.23;;;;;1.50;95528.00;;;;8299050;28;20567;-73
2022/11/19 07:35:36;;;;;;;39.23;11.10;;;;;1.40;95537.00;;;;8298867;28;20266;-73
2022/11/19 07:39:55;;;;;;;41.60;12.33;;;;;1.40;95544.00;;;;8298967;28;20215;-73
2022/11/19 07:44:34;;;;;;;49.17;13.33;;;;;1.50;95538.00;;;;8298825;28;20227;-73
2022/11/19 07:49:11;;;;;;;50.33;12.73;;;;;1.50;95548.00;;;;8298950;28;20254;-73
2022/11/19 07:53:14;;;;;;;31.70;11.07;;;;;1.60;95553.00;;;;8298434;28;20233;-72
2022/11/19 07:57:51;;;;;;;43.70;12.43;;;;;1.50;95552.00;;;;8264172;28;20230;-72
2022/11/19 08:02:29;;;;;;;42.20;11.03;;;;;1.50;95560.00;;;;8297510;28;20309;-72
2022/11/19 08:06:33;;;;;;;39.37;11.87;;;;;1.60;95571.00;;;;8296451;28;20235;-73
2022/11/19 08:10:36;;;;;;;47.23;12.97;;;;;1.60;95568.00;;;;8297913;28;20729;-72
2022/11/19 08:15:13;;;;;;;28.03;8.53;;;;;1.60;95562.00;;;;8296754;28;20239;-72
2022/11/19 08:19:18;;;;;;;23.73;6.83;;;;;1.60;95559.00;;;;8297468;28;20590;-71
2022/11/19 08:23:53;;;;;;;28.30;7.90;;;;;1.60;95569.00;;;;8295466;28;20572;-72
2022/11/19 08:28:27;;;;;;;21.17;8.43;;;;;1.60;95564.00;;;;8297955;28;20335;-72
2022/11/19 08:32:30;;;;;;;38.90;11.30;;;;;1.60;95576.00;;;;8296432;28;20223;-72
2022/11/19 08:36:34;;;;;;;34.63;10.93;;;;;1.60;95572.00;;;;8297579;28;20293;-72
2022/11/19 08:45:52;;;;;;;28.50;9.90;;;;;1.50;95581.00;;;;8296780;28;20228;-73
2022/11/19 08:49:56;;;;;;;33.33;10.37;;;;;1.40;95583.00;;;;8294718;28;20225;-72
2022/11/19 08:54:01;;;;;;;36.73;12.50;;;;;1.40;95587.00;;;;8293739;28;20274;-70
2022/11/19 08:58:34;;;;;;;40.00;11.20;;;;;1.40;95595.00;;;;8287003;28;20224;-73
2022/11/19 09:02:37;;;;;;;18.47;8.17;;;;;1.40;95605.00;;;;8296651;28;20556;-73
2022/11/19 09:07:14;;;;;;;20.83;7.67;;;;;1.40;95603.00;;;;8296022;28;20231;-73
2022/11/19 09:11:54;;;;;;;32.77;11.57;;;;;1.30;95596.00;;;;8295692;28;20658;-73
2022/11/19 09:15:57;;;;;;;33.40;12.03;;;;;1.20;95604.00;;;;8294727;28;20224;-72
2022/11/19 09:20:31;;;;;;;37.33;9.97;;;;;1.20;95599.00;;;;8295867;28;20222;-71
2022/11/19 09:24:34;;;;;;;41.27;12.30;;;;;1.20;95615.00;;;;8295749;28;20260;-72
2022/11/19 09:29:09;;;;;;;50.97;13.53;;;;;1.20;95617.00;;;;8295665;28;20250;-72
2022/11/19 09:33:12;;;;;;;40.40;10.80;;;;;1.30;95622.00;;;;8296128;28;20219;-72
2022/11/19 09:37:15;;;;;;;28.10;8.83;;;;;1.20;95626.00;;;;8294628;28;20563;-73
2022/11/19 09:41:43;;;;;;;13.13;5.10;;;;;1.30;95610.00;;;;8296296;28;20228;-73
2022/11/19 09:45:58;;;;;;;21.93;7.57;;;;;1.50;95620.00;;;;8294647;28;20227;-72
2022/11/19 09:50:24;;;;;;;59.60;17.03;;;;;1.70;95607.00;;;;8295013;28;20250;-74
2022/11/19 09:54:28;;;;;;;8.47;4.23;;;;;1.80;95607.00;;;;8294466;28;20234;-73
2022/11/19 09:58:33;;;;;;;51.30;14.93;;;;;1.80;95610.00;;;;8294175;28;20320;-74
2022/11/19 10:03:14;;;;;;;13.37;5.57;;;;;1.90;95607.00;;;;8294306;28;20224;-72
2022/11/19 10:07:28;;;;;;;21.40;7.37;;;;;1.80;95604.00;;;;8294545;28;20277;-72
2022/11/19 10:11:56;;;;;;;38.57;12.00;;;;;1.80;95602.00;;;;8294932;28;20237;-72
2022/11/19 10:16:15;;;;;;;30.20;10.10;;;;;1.90;95597.00;;;;8294383;28;20220;-73
2022/11/19 10:20:45;;;;;;;28.47;10.23;;;;;1.90;95598.00;;;;8294241;28;20606;-72
2022/11/19 10:24:55;;;;;;;21.70;8.87;;;;;1.90;95606.00;;;;8295421;28;20665;-72
2022/11/19 10:28:58;;;;;;;21.37;6.37;;;;;1.90;95602.00;;;;8301311;28;20277;-72
2022/11/19 10:33:37;;;;;;;24.83;7.90;;;;;1.90;95604.00;;;;8300425;28;20234;-72
2022/11/19 10:37:52;;;;;;;36.37;12.33;;;;;1.80;95604.00;;;;8300596;28;20219;-72
2022/11/19 10:42:00;;;;;;;21.20;8.93;;;;;1.80;95605.00;;;;8301022;28;20537;-74
2022/11/19 10:46:31;;;;;;;34.80;11.67;;;;;1.80;95598.00;;;;8300009;28;20218;-71
2022/11/19 10:51:13;;;;;;;28.47;10.27;;;;;1.90;95593.00;;;;8300643;28;20287;-73
2022/11/19 10:55:23;;;;;;;34.00;11.10;;;;;1.80;95605.00;;;;8300133;28;20222;-72
2022/11/19 10:59:52;;;;;;;14.03;5.60;;;;;2.00;95599.00;;;;8300352;28;20232;-72
2022/11/19 11:04:27;;;;;;;19.37;6.20;;;;;1.90;95605.00;;;;8299029;28;20469;-72
2022/11/19 11:08:30;;;;;;;42.37;12.63;;;;;1.80;95607.00;;;;8292691;28;20230;-72
2022/11/19 11:16:58;;;;;;;30.30;9.80;;;;;1.80;95604.00;;;;8299010;28;20218;-72
2022/11/19 11:21:37;;;;;;;43.77;12.13;;;;;1.70;95598.00;;;;8299447;28;20232;-72
2022/11/19 11:25:40;;;;;;;6.20;4.33;;;;;1.70;95598.00;;;;8298822;28;20228;-72
2022/11/19 11:30:19;;;;;;;30.60;8.77;;;;;1.60;95591.00;;;;8298437;28;20529;-72
2022/11/19 11:34:32;;;;;;;19.33;7.80;;;;;1.70;95596.00;;;;8299769;28;20257;-72
2022/11/19 11:39:04;;;;;;;31.47;9.63;;;;;1.70;95593.00;;;;8297789;28;20673;-72
2022/11/19 11:43:15;;;;;;;21.10;8.57;;;;;1.80;95593.00;;;;8298557;28;20219;-72
2022/11/19 11:47:44;;;;;;;30.50;8.37;;;;;1.80;95594.00;;;;8298846;28;20232;-72
2022/11/19 11:51:58;;;;;;;33.57;11.23;;;;;1.70;95596.00;;;;8298814;28;20223;-72
2022/11/19 11:56:23;;;;;;;16.33;5.20;;;;;1.70;95583.00;;;;8297381;28;20811;-72
2022/11/19 12:00:59;;;;;;;37.43;9.90;;;;;1.70;95596.00;;;;8288098;28;20660;-72
2022/11/19 12:05:39;;;;;;;25.83;9.30;;;;;1.70;95579.00;;;;8297175;28;20232;-72
2022/11/19 12:10:23;;;;;;;45.27;12.67;;;;;1.70;95583.00;;;;8296954;28;20658;-72
2022/11/19 12:14:56;;;;;;;22.57;7.73;;;;;1.70;95584.00;;;;8297518;28;27368;-72
2022/11/19 12:24:40;;;;;;;37.60;10.30;;;;;1.80;95580.00;;;;8296301;28;20226;-72
2022/11/19 12:29:16;;;;;;;19.93;7.67;;;;;1.80;95584.00;;;;8297070;28;20226;-72
2022/11/19 12:33:56;;;;;;;32.93;10.03;;;;;1.80;95586.00;;;;8297284;28;20276;-73
2022/11/19 12:38:34;;;;;;;28.77;10.80;;;;;1.80;95589.00;;;;8297013;28;20247;-73
2022/11/19 12:43:05;;;;;;;30.63;9.27;;;;;1.80;95584.00;;;;8295871;28;20290;-73
2022/11/19 12:47:49;;;;;;;18.37;6.83;;;;;1.80;95578.00;;;;8296724;28;20246;-73
2022/11/19 12:52:25;;;;;;;30.93;10.27;;;;;1.80;95581.00;;;;8295967;28;20245;-73
2022/11/19 12:56:54;;;;;;;42.80;9.83;;;;;1.90;95581.00;;;;8296213;28;20295;-73
2022/11/19 13:01:24;;;;;;;27.63;9.27;;;;;2.00;95583.00;;;;8296015;28;20691;-72
2022/11/19 13:06:03;;;;;;;22.33;7.63;;;;;1.90;95597.00;;;;8296668;28;20236;-73
2022/11/19 13:10:39;;;;;;;38.50;11.47;;;;;1.90;95593.00;;;;8296770;28;20229;-73
2022/11/19 13:14:46;;;;;;;31.53;9.83;;;;;2.00;95592.00;;;;8295454;28;20228;-72
2022/11/19 13:19:07;;;;;;;33.73;10.50;;;;;1.90;95580.00;;;;8295743;28;20303;-72
2022/11/19 13:23:37;;;;;;;42.53;11.10;;;;;1.90;95561.00;;;;8295405;28;20222;-72
2022/11/19 13:28:18;;;;;;;39.27;11.57;;;;;2.00;95553.00;;;;8294487;28;20226;-71
2022/11/19 13:32:48;;;;;;;27.13;9.77;;;;;2.10;95569.00;;;;8295264;28;20242;-73
2022/11/19 13:37:22;;;;;;;37.20;12.60;;;;;2.10;95565.00;;;;8296193;28;20703;-73
2022/11/19 13:46:37;;;;;;;32.70;10.43;;;;;2.20;95562.00;;;;8294973;28;20218;-73
2022/11/19 13:51:08;;;;;;;21.93;8.67;;;;;2.10;95566.00;;;;8294795;28;20595;-74
2022/11/19 13:55:46;;;;;;;29.20;10.07;;;;;2.00;95560.00;;;;8295520;28;20223;-73
2022/11/19 14:00:24;;;;;;;24.07;8.53;;;;;1.90;95570.00;;;;8294254;28;20638;-74
2022/11/19 14:04:57;;;;;;;34.43;9.33;;;;;1.90;95564.00;;;;8294234;28;20212;-74
2022/11/19 14:09:37;;;;;;;27.00;9.27;;;;;1.90;95564.00;;;;8294259;28;20228;-72
2022/11/19 14:28:52;;;;;;;45.93;10.63;;;;;1.90;95551.00;;;;8293431;28;20271;-73
2022/11/19 14:33:32;;;;;;;38.67;11.80;;;;;2.00;95553.00;;;;8295577;28;20222;-73
2022/11/19 14:38:12;;;;;;;36.77;11.77;;;;;1.90;95541.00;;;;8294292;28;20223;-73
2022/11/19 14:42:17;;;;;;;32.13;9.00;;;;;1.90;95549.00;;;;8293899;28;20649;-72
2022/11/19 14:46:51;;;;;;;31.47;10.43;;;;;1.90;95553.00;;;;8294055;28;20231;-72
2022/11/19 14:51:04;;;;;;;27.23;9.20;;;;;1.90;95561.00;;;;8293676;28;20306;-73
2022/11/19 14:55:21;;;;;;;14.93;7.07;;;;;1.90;95554.00;;;;8293459;28;20664;-74
2022/11/19 14:59:48;;;;;;;42.70;12.73;;;;;1.80;95565.00;;;;8293677;28;20230;-73
2022/11/19 15:03:55;;;;;;;39.83;12.13;;;;;1.80;95563.00;;;;8294197;28;20289;-73
2022/11/19 15:08:43;;;;;;;21.67;6.97;;;;;1.80;95565.00;;;;8293275;28;20250;-73
2022/11/19 15:12:49;;;;;;;42.50;11.17;;;;;1.70;95564.00;;;;8294287;28;20274;-73
2022/11/19 15:16:52;;;;;;;30.47;10.50;;;;;1.80;95570.00;;;;8300521;28;20226;-73
2022/11/19 15:21:32;;;;;;;22.13;7.70;;;;;1.80;95565.00;;;;8299202;28;20229;-73
2022/11/19 15:26:11;;;;;;;16.83;6.80;;;;;1.80;95560.00;;;;8299050;28;20290;-74
2022/11/19 15:30:51;;;;;;;32.27;7.27;;;;;1.70;95559.00;;;;8298656;28;20651;-74
2022/11/19 15:35:31;;;;;;;12.90;5.77;;;;;1.70;95554.00;;;;8298585;28;20222;-73
2022/11/19 15:39:38;;;;;;;25.87;9.73;;;;;1.60;95564.00;;;;8297997;28;20314;-74
2022/11/19 15:43:46;;;;;;;27.40;8.57;;;;;1.70;95570.00;;;;8300169;28;20224;-74
2022/11/19 15:48:19;;;;;;;7.93;4.47;;;;;1.70;95569.00;;;;8298265;28;20223;-73
2022/11/19 15:52:59;;;;;;;27.97;10.37;;;;;1.60;95575.00;;;;8298208;28;20293;-75
2022/11/19 15:57:22;;;;;;;15.93;7.83;;;;;1.60;95585.00;;;;8299069;28;20607;-75
2022/11/19 16:01:46;;;;;;;14.87;7.47;;;;;1.60;95585.00;;;;8297973;28;20227;-74
2022/11/19 16:06:21;;;;;;;56.97;14.35;;;;;1.60;95583.00;;;;8301504;28;20439;-75
2022/11/19 16:21:06;;;;;;;15.67;7.07;;;;;1.70;95594.00;;;;8524989;27;20623;-73
2022/11/19 16:25:45;;;;;;;19.07;7.90;;;;;1.60;95587.00;;;;8533669;27;20223;-73
2022/11/19 16:29:48;;;;;;;34.27;10.23;;;;;1.60;95601.00;;;;8557458;27;20213;-73
2022/11/19 16:34:26;;;;;;;26.83;8.97;;;;;1.60;95601.00;;;;8558428;27;20226;-73
2022/11/19 16:39:04;;;;;;;39.43;11.37;;;;;1.60;95597.00;;;;8556907;27;20282;-72
2022/11/19 16:43:40;;;;;;;20.87;7.67;;;;;1.60;95604.00;;;;8558069;27;20221;-72
2022/11/19 16:48:29;;;;;;;16.10;5.87;;;;;1.60;95603.00;;;;8557318;27;20531;-72
2022/11/19 16:52:51;;;;;;;51.30;15.00;;;;;1.60;95602.00;;;;8557453;27;20526;-74
2022/11/19 16:57:28;;;;;;;30.93;10.73;;;;;1.70;95614.00;;;;8556752;27;20306;-73
2022/11/19 17:02:12;;;;;;;31.00;8.83;;;;;1.70;95609.00;;;;8558043;27;20222;-73
2022/11/19 17:06:42;;;;;;;30.43;9.47;;;;;1.70;95611.00;;;;8557582;27;20537;-74
2022/11/19 17:10:45;;;;;;;43.23;11.50;;;;;1.80;95613.00;;;;8556210;27;20236;-74
2022/11/19 17:15:25;;;;;;;27.23;8.20;;;;;1.80;95605.00;;;;8557983;27;20219;-74
2022/11/19 17:19:33;;;;;;;27.30;9.40;;;;;1.70;95612.00;;;;8556472;27;20314;-74
2022/11/19 17:24:04;;;;;;;13.60;7.03;;;;;1.70;95610.00;;;;8557001;27;20217;-74
2022/11/19 17:28:44;;;;;;;28.67;9.90;;;;;1.70;95630.00;;;;8527592;27;20227;-74
2022/11/19 17:33:18;;;;;;;39.60;10.83;;;;;1.80;95638.00;;;;8534553;27;20211;-75
2022/11/19 17:37:58;;;;;;;30.63;8.90;;;;;1.90;95641.00;;;;8532449;27;20215;-74
2022/11/19 17:47:14;;;;;;;36.53;11.23;;;;;1.90;95650.00;;;;8533598;27;20639;-74
2022/11/19 17:51:47;;;;;;;20.33;7.37;;;;;1.80;95657.00;;;;8533638;27;20274;-74
2022/11/19 17:56:27;;;;;;;16.27;6.00;;;;;1.80;95667.00;;;;8533137;27;20243;-74
2022/11/19 18:01:00;;;;;;;28.60;9.07;;;;;1.70;95672.00;;;;8532455;27;20610;-75
2022/11/19 18:05:14;;;;;;;31.40;10.00;;;;;1.70;95672.00;;;;8532775;27;20269;-75
2022/11/19 18:09:41;;;;;;;28.53;8.73;;;;;1.70;95658.00;;;;8532149;27;20220;-76
2022/11/19 18:13:48;;;;;;;27.97;8.57;;;;;1.80;95654.00;;;;8533024;27;20221;-76
2022/11/19 18:17:51;;;;;;;45.17;12.27;;;;;1.80;95656.00;;;;8532331;27;20233;-76
2022/11/19 18:21:54;;;;;;;50.07;13.50;;;;;1.80;95662.00;;;;8531729;27;20241;-75
2022/11/19 18:25:57;;;;;;;29.47;9.67;;;;;1.80;95663.00;;;;8532044;27;20231;-76
2022/11/19 18:30:02;;;;;;;42.67;10.83;;;;;1.80;95676.00;;;;8532488;27;20558;-76
2022/11/19 18:34:05;;;;;;;49.40;13.33;;;;;1.80;95679.00;;;;8531112;27;20223;-75
2022/11/19 18:38:08;;;;;;;46.77;12.33;;;;;1.90;95675.00;;;;8531876;27;20232;-75
2022/11/19 18:47:04;;;;;;;28.67;9.90;;;;;1.90;95671.00;;;;8530438;27;20219;-74
2022/11/19 18:51:10;;;;;;;55.27;13.17;;;;;1.80;95658.00;;;;8532069;27;20237;-74
2022/11/19 18:55:13;;;;;;;39.17;11.93;;;;;1.90;95664.00;;;;8530517;27;20230;-74
2022/11/19 18:59:50;;;;;;;32.07;10.63;;;;;1.90;95668.00;;;;8531233;27;20649;-75
2022/11/19 19:03:54;;;;;;;48.77;11.57;;;;;1.90;95664.00;;;;8531004;27;20221;-74
2022/11/19 19:07:57;;;;;;;54.60;14.37;;;;;1.90;95674.00;;;;8530214;27;20440;-74
2022/11/19 19:16:18;;;;;;;45.90;13.00;;;;;1.90;95678.00;;;;8527773;27;20219;-74
2022/11/19 19:20:53;;;;;;;52.80;13.40;;;;;1.90;95686.00;;;;8528640;27;20229;-74
2022/11/19 19:29:54;;;;;;;31.60;11.37;;;;;1.70;95673.00;;;;8529779;27;20213;-74
2022/11/19 19:34:31;;;;;;;46.83;12.67;;;;;1.80;95678.00;;;;8529979;27;20242;-74
2022/11/19 19:38:35;;;;;;;58.73;14.20;;;;;1.80;95675.00;;;;8528765;27;20306;-74
2022/11/19 19:43:12;;;;;;;40.03;12.80;;;;;1.80;95671.00;;;;8529465;27;20217;-74
2022/11/19 19:47:18;;;;;;;33.03;10.10;;;;;1.80;95664.00;;;;8529840;27;20674;-74
2022/11/19 19:51:22;;;;;;;44.33;12.20;;;;;1.80;95659.00;;;;8529406;27;20221;-74
2022/11/19 19:55:27;;;;;;;49.73;14.00;;;;;1.90;95676.00;;;;8522194;27;20220;-74
2022/11/19 19:59:30;;;;;;;52.13;15.27;;;;;1.90;95677.00;;;;8529341;27;20211;-74
2022/11/19 20:04:08;;;;;;;28.53;10.57;;;;;1.90;95681.00;;;;8527118;27;20221;-74
2022/11/19 20:08:11;;;;;;;52.07;13.80;;;;;1.80;95688.00;;;;8528129;27;20219;-74
2022/11/19 20:17:24;;;;;;;62.47;16.60;;;;;1.80;95684.00;;;;8528805;27;20648;-74
2022/11/19 20:21:30;;;;;;;43.43;11.60;;;;;1.70;95686.00;;;;8527837;27;20527;-74
2022/11/19 20:26:05;;;;;;;26.20;9.40;;;;;1.70;95679.00;;;;8528891;27;20216;-74
2022/11/19 20:30:09;;;;;;;23.90;9.07;;;;;1.70;95677.00;;;;8528066;27;20226;-74
2022/11/19 20:34:44;;;;;;;39.77;11.10;;;;;1.70;95682.00;;;;8528092;27;20233;-74
2022/11/19 20:38:47;;;;;;;49.80;12.80;;;;;1.70;95687.00;;;;8527782;27;25350;-74
2022/11/19 20:47:53;;;;;;;47.47;12.40;;;;;1.70;95677.00;;;;8528154;27;20245;-74
2022/11/19 20:51:58;;;;;;;54.63;12.93;;;;;1.80;95677.00;;;;8527666;27;20272;-74
2022/11/19 20:56:31;;;;;;;55.53;13.53;;;;;1.90;95668.00;;;;8528369;27;20247;-73
2022/11/19 21:00:34;;;;;;;50.40;14.37;;;;;1.90;95680.00;;;;8527678;27;20220;-73
2022/11/19 21:05:11;;;;;;;44.53;11.70;;;;;2.00;95690.00;;;;8529543;27;20256;-74
2022/11/19 21:09:18;;;;;;;49.77;12.07;;;;;2.00;95688.00;;;;8533856;27;20213;-74
2022/11/19 21:13:22;;;;;;;45.43;12.20;;;;;2.00;95683.00;;;;8534674;27;20218;-74
2022/11/19 21:17:25;;;;;;;56.87;13.50;;;;;2.00;95682.00;;;;8534379;27;20221;-74
2022/11/19 21:21:28;;;;;;;55.50;12.00;;;;;2.10;95696.00;;;;8533288;27;20230;-73
2022/11/19 21:25:33;;;;;;;58.93;12.80;;;;;2.10;95681.00;;;;8533132;27;20220;-73
2022/11/19 21:30:08;;;;;;;47.43;11.87;;;;;2.10;95680.00;;;;8533770;27;20563;-73
2022/11/19 21:34:13;;;;;;;76.20;16.27;;;;;2.00;95672.00;;;;8534026;27;20217;-73
2022/11/19 21:38:47;;;;;;;40.80;13.13;;;;;1.90;95666.00;;;;8533151;27;20654;-73
2022/11/19 21:42:51;;;;;;;49.47;12.07;;;;;1.80;95666.00;;;;8532404;27;20233;-73
2022/11/19 21:47:25;;;;;;;34.23;10.40;;;;;1.80;95672.00;;;;8533616;27;20218;-73
2022/11/19 21:52:02;;;;;;;54.23;12.20;;;;;1.80;95664.00;;;;8531629;27;20213;-73
2022/11/19 21:56:06;;;;;;;57.30;14.30;;;;;1.80;95662.00;;;;8532402;27;20665;-73
2022/11/19 22:00:12;;;;;;;59.27;12.50;;;;;1.80;95665.00;;;;8532122;27;20237;-74
2022/11/19 22:04:46;;;;;;;70.93;15.33;;;;;1.90;95657.00;;;;8532745;27;20214;-74
2022/11/19 22:08:49;;;;;;;44.17;13.13;;;;;2.00;95657.00;;;;8528676;27;20214;-73
2022/11/19 22:12:52;;;;;;;36.97;11.40;;;;;2.00;95654.00;;;;8532932;27;20229;-73
2022/11/19 22:16:57;;;;;;;60.90;12.87;;;;;1.90;95654.00;;;;8531268;27;20245;-72
2022/11/19 22:21:30;;;;;;;40.47;12.17;;;;;1.90;95648.00;;;;8531921;27;20238;-73
2022/11/19 22:25:34;;;;;;;45.17;12.63;;;;;1.90;95642.00;;;;8511939;27;20233;-72
2022/11/19 22:29:37;;;;;;;48.77;11.90;;;;;1.90;95649.00;;;;8522544;27;20256;-73
2022/11/19 22:33:41;;;;;;;36.33;11.27;;;;;1.90;95657.00;;;;8531343;27;20227;-73
2022/11/19 22:37:45;;;;;;;51.50;11.53;;;;;1.90;95649.00;;;;8531589;27;20231;-73
2022/11/19 22:41:48;;;;;;;38.63;11.60;;;;;1.90;95654.00;;;;8529949;27;20315;-73
2022/11/19 22:46:25;;;;;;;52.90;12.70;;;;;2.00;95662.00;;;;8530957;27;20278;-73
2022/11/19 22:50:29;;;;;;;37.93;10.67;;;;;2.00;95652.00;;;;8530667;27;20223;-73
2022/11/19 22:54:32;;;;;;;48.10;11.57;;;;;2.00;95654.00;;;;8530854;27;20215;-73
2022/11/19 22:58:44;;;;;;;40.73;11.53;;;;;2.00;95664.00;;;;8531139;27;20218;-73
2022/11/19 23:02:47;;;;;;;44.43;11.70;;;;;2.00;95666.00;;;;8530148;27;20223;-73
2022/11/19 23:06:52;;;;;;;43.53;10.73;;;;;2.00;95662.00;;;;8530377;27;20228;-73
2022/11/19 23:10:59;;;;;;;44.67;12.67;;;;;2.10;95676.00;;;;8530008;27;20217;-73
2022/11/19 23:15:02;;;;;;;53.13;12.27;;;;;2.10;95676.00;;;;8530023;27;20209;-74
2022/11/19 23:19:05;;;;;;;48.53;11.40;;;;;2.10;95681.00;;;;8530078;27;20223;-74